sensor_id;sensor_type;location;lat;lon;timestamp;P1;durP1;ratioP1;P2;durP2;ratioP2
8986;SDS011;4529;51.360;12.474;2023-02-24T00:02:25;19.20;;;11.83;;
8986;SDS011;4529;51.360;12.474;2023-02-24T00:07:29;17.43;;;10.83;;
8986;SDS011;4529;51.360;12.474;2023-02-24T00:12:32;16.93;;;10.77;;
8986;SDS011;4529;51.360;12.474;2023-02-24T00:17:36;16.00;;;10.30;;
8986;SDS011;4529;51.360;12.474;2023-02-24T00:22:44;16.47;;;10.63;;
8986;SDS011;4529;51.360;12.474;2023-02-24T00:27:47;16.53;;;10.37;;
8986;SDS011;4529;51.360;12.474;2023-02-24T00:32:51;17.90;;;10.67;;
8986;SDS011;4529;51.360;12.474;2023-02-24T00:37:54;18.67;;;10.23;;
8986;SDS011;4529;51.360;12.474;2023-02-24T00:42:58;18.30;;;10.30;;
8986;SDS011;4529;51.360;12.474;2023-02-24T00:48:01;15.50;;;9.53;;
8986;SDS011;4529;51.360;12.474;2023-02-24T00:53:05;19.47;;;9.47;;
8986;SDS011;4529;51.360;12.474;2023-02-24T00:58:08;18.70;;;10.30;;
8986;SDS011;4529;51.360;12.474;2023-02-24T01:03:12;17.73;;;10.00;;
8986;SDS011;4529;51.360;12.474;2023-02-24T01:08:15;20.30;;;10.70;;
8986;SDS011;4529;51.360;12.474;2023-02-24T01:13:19;21.27;;;10.93;;
8986;SDS011;4529;51.360;12.474;2023-02-24T01:18:23;22.00;;;10.93;;
8986;SDS011;4529;51.360;12.474;2023-02-24T01:23:27;28.23;;;12.50;;
8986;SDS011;4529;51.360;12.474;2023-02-24T01:28:32;29.30;;;12.87;;
8986;SDS011;4529;51.360;12.474;2023-02-24T01:33:36;34.33;;;12.23;;
8986;SDS011;4529;51.360;12.474;2023-02-24T01:38:40;32.13;;;11.77;;
8986;SDS011;4529;51.360;12.474;2023-02-24T01:44:00;36.67;;;12.67;;
8986;SDS011;4529;51.360;12.474;2023-02-24T01:49:17;29.37;;;10.83;;
8986;SDS011;4529;51.360;12.474;2023-02-24T01:54:35;31.47;;;11.00;;
8986;SDS011;4529;51.360;12.474;2023-02-24T01:59:38;29.00;;;10.90;;
8986;SDS011;4529;51.360;12.474;2023-02-24T02:04:43;33.10;;;11.30;;
8986;SDS011;4529;51.360;12.474;2023-02-24T02:09:51;28.97;;;10.73;;
8986;SDS011;4529;51.360;12.474;2023-02-24T02:14:55;29.40;;;11.03;;
8986;SDS011;4529;51.360;12.474;2023-02-24T02:36:12;13.63;;;5.67;;
8986;SDS011;4529;51.360;12.474;2023-02-24T02:41:28;14.83;;;5.40;;
8986;SDS011;4529;51.360;12.474;2023-02-24T02:46:35;13.87;;;4.50;;
8986;SDS011;4529;51.360;12.474;2023-02-24T02:51:46;9.90;;;4.00;;
8986;SDS011;4529;51.360;12.474;2023-02-24T02:56:51;9.37;;;3.80;;
8986;SDS011;4529;51.360;12.474;2023-02-24T03:02:03;10.73;;;3.13;;
8986;SDS011;4529;51.360;12.474;2023-02-24T03:07:06;7.87;;;3.20;;
8986;SDS011;4529;51.360;12.474;2023-02-24T03:12:14;7.60;;;3.03;;
8986;SDS011;4529;51.360;12.474;2023-02-24T03:17:18;13.93;;;3.63;;
8986;SDS011;4529;51.360;12.474;2023-02-24T03:22:26;10.33;;;3.70;;
8986;SDS011;4529;51.360;12.474;2023-02-24T03:27:33;11.83;;;3.70;;
8986;SDS011;4529;51.360;12.474;2023-02-24T03:32:48;9.20;;;2.93;;
8986;SDS011;4529;51.360;12.474;2023-02-24T03:37:59;12.20;;;3.10;;
8986;SDS011;4529;51.360;12.474;2023-02-24T03:43:49;10.13;;;3.10;;
8986;SDS011;4529;51.360;12.474;2023-02-24T03:48:15;9.50;;;2.97;;
8986;SDS011;4529;51.360;12.474;2023-02-24T03:58:56;10.97;;;2.93;;
8986;SDS011;4529;51.360;12.474;2023-02-24T04:04:25;8.30;;;2.73;;
8986;SDS011;4529;51.360;12.474;2023-02-24T04:09:39;17.50;;;3.13;;
8986;SDS011;4529;51.360;12.474;2023-02-24T04:15:05;12.87;;;2.60;;
8986;SDS011;4529;51.360;12.474;2023-02-24T04:20:02;8.83;;;2.90;;
8986;SDS011;4529;51.360;12.474;2023-02-24T04:25:03;12.10;;;3.00;;
8986;SDS011;4529;51.360;12.474;2023-02-24T04:30:07;9.07;;;3.10;;
8986;SDS011;4529;51.360;12.474;2023-02-24T04:35:12;8.43;;;2.70;;
8986;SDS011;4529;51.360;12.474;2023-02-24T04:40:14;6.47;;;2.63;;
8986;SDS011;4529;51.360;12.474;2023-02-24T04:45:19;6.27;;;2.60;;
8986;SDS011;4529;51.360;12.474;2023-02-24T04:50:36;11.13;;;2.53;;
8986;SDS011;4529;51.360;12.474;2023-02-24T04:55:38;11.80;;;2.43;;
8986;SDS011;4529;51.360;12.474;2023-02-24T05:00:40;7.30;;;2.40;;
8986;SDS011;4529;51.360;12.474;2023-02-24T05:05:50;8.63;;;2.40;;
8986;SDS011;4529;51.360;12.474;2023-02-24T05:10:53;10.63;;;2.70;;
8986;SDS011;4529;51.360;12.474;2023-02-24T05:15:58;9.13;;;2.80;;
8986;SDS011;4529;51.360;12.474;2023-02-24T05:26:35;10.20;;;2.50;;
8986;SDS011;4529;51.360;12.474;2023-02-24T05:31:38;11.10;;;2.83;;
8986;SDS011;4529;51.360;12.474;2023-02-24T05:36:41;10.13;;;2.43;;
8986;SDS011;4529;51.360;12.474;2023-02-24T05:41:46;11.03;;;2.67;;
8986;SDS011;4529;51.360;12.474;2023-02-24T05:46:50;15.80;;;2.80;;
8986;SDS011;4529;51.360;12.474;2023-02-24T05:51:56;4.53;;;2.23;;
8986;SDS011;4529;51.360;12.474;2023-02-24T05:57:03;9.50;;;2.23;;
8986;SDS011;4529;51.360;12.474;2023-02-24T06:02:06;7.77;;;2.40;;
8986;SDS011;4529;51.360;12.474;2023-02-24T06:07:10;12.90;;;2.30;;
8986;SDS011;4529;51.360;12.474;2023-02-24T06:12:16;10.03;;;2.60;;
8986;SDS011;4529;51.360;12.474;2023-02-24T06:17:19;11.80;;;2.70;;
8986;SDS011;4529;51.360;12.474;2023-02-24T06:22:23;7.37;;;2.47;;
8986;SDS011;4529;51.360;12.474;2023-02-24T06:27:26;5.77;;;2.20;;
8986;SDS011;4529;51.360;12.474;2023-02-24T06:32:29;9.40;;;2.30;;
8986;SDS011;4529;51.360;12.474;2023-02-24T06:37:33;9.47;;;1.90;;
8986;SDS011;4529;51.360;12.474;2023-02-24T06:42:36;8.47;;;2.10;;
8986;SDS011;4529;51.360;12.474;2023-02-24T06:47:40;11.00;;;2.60;;
8986;SDS011;4529;51.360;12.474;2023-02-24T06:52:43;8.87;;;2.23;;
8986;SDS011;4529;51.360;12.474;2023-02-24T06:57:46;4.57;;;1.93;;
8986;SDS011;4529;51.360;12.474;2023-02-24T07:02:50;7.07;;;2.13;;
8986;SDS011;4529;51.360;12.474;2023-02-24T07:07:55;8.30;;;2.17;;
8986;SDS011;4529;51.360;12.474;2023-02-24T07:12:59;7.87;;;2.40;;
8986;SDS011;4529;51.360;12.474;2023-02-24T07:18:03;10.53;;;2.40;;
8986;SDS011;4529;51.360;12.474;2023-02-24T07:23:06;7.63;;;2.30;;
8986;SDS011;4529;51.360;12.474;2023-02-24T07:28:11;8.50;;;2.00;;
8986;SDS011;4529;51.360;12.474;2023-02-24T07:33:13;8.90;;;2.67;;
8986;SDS011;4529;51.360;12.474;2023-02-24T07:38:17;7.87;;;2.37;;
8986;SDS011;4529;51.360;12.474;2023-02-24T07:43:20;9.53;;;2.60;;
8986;SDS011;4529;51.360;12.474;2023-02-24T07:48:24;6.13;;;2.10;;
8986;SDS011;4529;51.360;12.474;2023-02-24T07:53:29;3.50;;;1.40;;
8986;SDS011;4529;51.360;12.474;2023-02-24T07:58:32;6.93;;;2.20;;
8986;SDS011;4529;51.360;12.474;2023-02-24T08:03:35;6.87;;;2.00;;
8986;SDS011;4529;51.360;12.474;2023-02-24T08:08:39;3.13;;;2.00;;
8986;SDS011;4529;51.360;12.474;2023-02-24T08:13:42;12.23;;;2.07;;
8986;SDS011;4529;51.360;12.474;2023-02-24T08:18:46;12.17;;;3.10;;
8986;SDS011;4529;51.360;12.474;2023-02-24T08:23:50;10.37;;;2.87;;
8986;SDS011;4529;51.360;12.474;2023-02-24T08:28:54;15.90;;;3.47;;
8986;SDS011;4529;51.360;12.474;2023-02-24T08:33:58;10.57;;;3.00;;
8986;SDS011;4529;51.360;12.474;2023-02-24T08:39:01;8.50;;;3.43;;
8986;SDS011;4529;51.360;12.474;2023-02-24T08:44:04;13.93;;;3.67;;
8986;SDS011;4529;51.360;12.474;2023-02-24T08:49:09;10.33;;;3.50;;
8986;SDS011;4529;51.360;12.474;2023-02-24T08:54:17;10.17;;;3.27;;
8986;SDS011;4529;51.360;12.474;2023-02-24T08:59:23;8.43;;;3.23;;
8986;SDS011;4529;51.360;12.474;2023-02-24T09:04:26;8.17;;;3.10;;
8986;SDS011;4529;51.360;12.474;2023-02-24T09:09:29;12.07;;;3.20;;
8986;SDS011;4529;51.360;12.474;2023-02-24T09:14:33;8.57;;;3.73;;
8986;SDS011;4529;51.360;12.474;2023-02-24T09:19:40;6.40;;;3.20;;
8986;SDS011;4529;51.360;12.474;2023-02-24T09:24:43;5.50;;;2.50;;
8986;SDS011;4529;51.360;12.474;2023-02-24T09:29:46;6.10;;;2.80;;
8986;SDS011;4529;51.360;12.474;2023-02-24T09:34:50;8.93;;;3.07;;
8986;SDS011;4529;51.360;12.474;2023-02-24T09:39:54;6.40;;;3.23;;
8986;SDS011;4529;51.360;12.474;2023-02-24T09:45:00;7.40;;;3.30;;
8986;SDS011;4529;51.360;12.474;2023-02-24T10:00:38;11.50;;;3.97;;
8986;SDS011;4529;51.360;12.474;2023-02-24T10:05:43;5.50;;;3.63;;
8986;SDS011;4529;51.360;12.474;2023-02-24T10:10:46;10.07;;;3.80;;
8986;SDS011;4529;51.360;12.474;2023-02-24T10:15:50;8.73;;;3.60;;
8986;SDS011;4529;51.360;12.474;2023-02-24T10:20:59;6.87;;;3.80;;
8986;SDS011;4529;51.360;12.474;2023-02-24T10:26:10;9.03;;;3.90;;
8986;SDS011;4529;51.360;12.474;2023-02-24T10:31:17;8.23;;;3.67;;
8986;SDS011;4529;51.360;12.474;2023-02-24T10:36:21;12.10;;;4.63;;
8986;SDS011;4529;51.360;12.474;2023-02-24T10:41:23;7.37;;;3.87;;
8986;SDS011;4529;51.360;12.474;2023-02-24T10:46:28;5.77;;;3.93;;
8986;SDS011;4529;51.360;12.474;2023-02-24T10:51:35;7.03;;;3.80;;
8986;SDS011;4529;51.360;12.474;2023-02-24T10:56:38;7.70;;;4.10;;
8986;SDS011;4529;51.360;12.474;2023-02-24T11:01:41;8.17;;;4.20;;
8986;SDS011;4529;51.360;12.474;2023-02-24T11:06:45;11.10;;;3.97;;
8986;SDS011;4529;51.360;12.474;2023-02-24T11:11:49;10.83;;;4.23;;
8986;SDS011;4529;51.360;12.474;2023-02-24T11:16:52;5.40;;;3.90;;
8986;SDS011;4529;51.360;12.474;2023-02-24T11:21:57;5.93;;;4.27;;
8986;SDS011;4529;51.360;12.474;2023-02-24T11:27:01;8.07;;;3.67;;
8986;SDS011;4529;51.360;12.474;2023-02-24T11:32:51;4.10;;;3.33;;
8986;SDS011;4529;51.360;12.474;2023-02-24T11:37:45;5.33;;;3.00;;
8986;SDS011;4529;51.360;12.474;2023-02-24T11:48:16;6.00;;;3.27;;
8986;SDS011;4529;51.360;12.474;2023-02-24T11:53:28;4.73;;;2.90;;
8986;SDS011;4529;51.360;12.474;2023-02-24T11:58:41;5.17;;;3.10;;
8986;SDS011;4529;51.360;12.474;2023-02-24T12:03:53;5.10;;;3.07;;
8986;SDS011;4529;51.360;12.474;2023-02-24T12:09:20;7.57;;;3.10;;
8986;SDS011;4529;51.360;12.474;2023-02-24T12:14:25;5.10;;;2.87;;
8986;SDS011;4529;51.360;12.474;2023-02-24T12:19:34;9.50;;;3.40;;
8986;SDS011;4529;51.360;12.474;2023-02-24T12:24:44;5.27;;;3.10;;
8986;SDS011;4529;51.360;12.474;2023-02-24T12:29:58;10.43;;;3.60;;
8986;SDS011;4529;51.360;12.474;2023-02-24T12:35:52;7.83;;;3.40;;
8986;SDS011;4529;51.360;12.474;2023-02-24T12:41:38;7.70;;;3.10;;
8986;SDS011;4529;51.360;12.474;2023-02-24T12:57:30;7.30;;;3.27;;
8986;SDS011;4529;51.360;12.474;2023-02-24T13:02:43;7.43;;;3.40;;
8986;SDS011;4529;51.360;12.474;2023-02-24T13:13:46;7.23;;;3.00;;
8986;SDS011;4529;51.360;12.474;2023-02-24T13:24:23;6.27;;;2.83;;
8986;SDS011;4529;51.360;12.474;2023-02-24T13:29:27;5.77;;;2.80;;
8986;SDS011;4529;51.360;12.474;2023-02-24T13:34:31;6.67;;;2.83;;
8986;SDS011;4529;51.360;12.474;2023-02-24T13:39:34;7.43;;;2.90;;
8986;SDS011;4529;51.360;12.474;2023-02-24T13:44:37;6.67;;;2.90;;
8986;SDS011;4529;51.360;12.474;2023-02-24T14:01:01;5.60;;;2.63;;
8986;SDS011;4529;51.360;12.474;2023-02-24T14:06:21;6.63;;;3.10;;
8986;SDS011;4529;51.360;12.474;2023-02-24T14:11:27;5.47;;;3.00;;
8986;SDS011;4529;51.360;12.474;2023-02-24T14:16:32;6.57;;;2.90;;
8986;SDS011;4529;51.360;12.474;2023-02-24T14:21:35;6.83;;;3.27;;
8986;SDS011;4529;51.360;12.474;2023-02-24T14:26:45;5.97;;;3.73;;
8986;SDS011;4529;51.360;12.474;2023-02-24T14:31:58;6.67;;;3.47;;
8986;SDS011;4529;51.360;12.474;2023-02-24T14:37:02;4.80;;;3.33;;
8986;SDS011;4529;51.360;12.474;2023-02-24T14:47:12;6.23;;;3.40;;
8986;SDS011;4529;51.360;12.474;2023-02-24T14:52:18;5.27;;;3.10;;
8986;SDS011;4529;51.360;12.474;2023-02-24T14:57:37;7.00;;;3.43;;
8986;SDS011;4529;51.360;12.474;2023-02-24T15:02:39;5.40;;;3.13;;
8986;SDS011;4529;51.360;12.474;2023-02-24T15:07:43;5.53;;;3.33;;
8986;SDS011;4529;51.360;12.474;2023-02-24T15:12:55;6.13;;;3.50;;
8986;SDS011;4529;51.360;12.474;2023-02-24T15:18:01;6.83;;;3.77;;
8986;SDS011;4529;51.360;12.474;2023-02-24T15:23:18;7.53;;;4.30;;
8986;SDS011;4529;51.360;12.474;2023-02-24T15:28:22;6.83;;;4.23;;
8986;SDS011;4529;51.360;12.474;2023-02-24T15:33:32;10.87;;;6.40;;
8986;SDS011;4529;51.360;12.474;2023-02-24T15:38:39;22.97;;;12.10;;
8986;SDS011;4529;51.360;12.474;2023-02-24T15:43:45;9.50;;;5.93;;
8986;SDS011;4529;51.360;12.474;2023-02-24T15:48:53;8.80;;;5.60;;
8986;SDS011;4529;51.360;12.474;2023-02-24T15:53:56;9.50;;;5.20;;
8986;SDS011;4529;51.360;12.474;2023-02-24T15:58:59;7.13;;;4.00;;
8986;SDS011;4529;51.360;12.474;2023-02-24T16:04:03;8.20;;;5.27;;
8986;SDS011;4529;51.360;12.474;2023-02-24T16:09:07;4.93;;;4.17;;
8986;SDS011;4529;51.360;12.474;2023-02-24T16:14:16;4.27;;;3.20;;
8986;SDS011;4529;51.360;12.474;2023-02-24T16:19:20;5.57;;;3.40;;
8986;SDS011;4529;51.360;12.474;2023-02-24T16:24:24;4.87;;;3.20;;
8986;SDS011;4529;51.360;12.474;2023-02-24T16:29:28;2.30;;;2.03;;
8986;SDS011;4529;51.360;12.474;2023-02-24T16:34:31;2.53;;;2.33;;
8986;SDS011;4529;51.360;12.474;2023-02-24T16:39:35;2.40;;;2.20;;
8986;SDS011;4529;51.360;12.474;2023-02-24T16:44:38;2.60;;;2.30;;
8986;SDS011;4529;51.360;12.474;2023-02-24T16:49:42;2.87;;;2.57;;
8986;SDS011;4529;51.360;12.474;2023-02-24T16:54:47;3.60;;;2.90;;
8986;SDS011;4529;51.360;12.474;2023-02-24T16:59:50;3.33;;;3.03;;
8986;SDS011;4529;51.360;12.474;2023-02-24T17:04:53;2.60;;;2.40;;
8986;SDS011;4529;51.360;12.474;2023-02-24T17:09:57;2.90;;;2.57;;
8986;SDS011;4529;51.360;12.474;2023-02-24T17:15:01;5.57;;;3.93;;
8986;SDS011;4529;51.360;12.474;2023-02-24T17:20:15;3.50;;;3.20;;
8986;SDS011;4529;51.360;12.474;2023-02-24T17:25:19;3.30;;;2.87;;
8986;SDS011;4529;51.360;12.474;2023-02-24T17:30:22;3.33;;;3.00;;
8986;SDS011;4529;51.360;12.474;2023-02-24T17:35:25;3.17;;;2.90;;
8986;SDS011;4529;51.360;12.474;2023-02-24T17:40:28;3.90;;;3.07;;
8986;SDS011;4529;51.360;12.474;2023-02-24T17:45:33;3.97;;;3.40;;
8986;SDS011;4529;51.360;12.474;2023-02-24T17:50:39;3.47;;;3.17;;
8986;SDS011;4529;51.360;12.474;2023-02-24T17:55:43;3.90;;;3.40;;
8986;SDS011;4529;51.360;12.474;2023-02-24T18:00:46;4.70;;;3.17;;
8986;SDS011;4529;51.360;12.474;2023-02-24T18:06:00;4.03;;;3.50;;
8986;SDS011;4529;51.360;12.474;2023-02-24T18:11:03;4.73;;;3.50;;
8986;SDS011;4529;51.360;12.474;2023-02-24T18:16:10;4.17;;;3.77;;
8986;SDS011;4529;51.360;12.474;2023-02-24T18:21:11;4.67;;;3.97;;
8986;SDS011;4529;51.360;12.474;2023-02-24T18:26:15;4.77;;;3.97;;
8986;SDS011;4529;51.360;12.474;2023-02-24T18:31:19;5.23;;;4.43;;
8986;SDS011;4529;51.360;12.474;2023-02-24T18:36:22;5.17;;;4.30;;
8986;SDS011;4529;51.360;12.474;2023-02-24T18:41:25;5.80;;;4.43;;
8986;SDS011;4529;51.360;12.474;2023-02-24T18:46:29;5.13;;;4.50;;
8986;SDS011;4529;51.360;12.474;2023-02-24T18:51:32;5.17;;;4.63;;
8986;SDS011;4529;51.360;12.474;2023-02-24T18:56:36;5.13;;;4.63;;
8986;SDS011;4529;51.360;12.474;2023-02-24T19:01:40;5.77;;;5.07;;
8986;SDS011;4529;51.360;12.474;2023-02-24T19:06:44;8.07;;;4.80;;
8986;SDS011;4529;51.360;12.474;2023-02-24T19:11:47;5.60;;;5.00;;
8986;SDS011;4529;51.360;12.474;2023-02-24T19:16:51;7.57;;;5.20;;
8986;SDS011;4529;51.360;12.474;2023-02-24T19:21:55;6.50;;;4.87;;
8986;SDS011;4529;51.360;12.474;2023-02-24T19:26:59;6.87;;;5.27;;
8986;SDS011;4529;51.360;12.474;2023-02-24T19:32:04;6.67;;;5.40;;
8986;SDS011;4529;51.360;12.474;2023-02-24T19:37:09;7.07;;;5.57;;
8986;SDS011;4529;51.360;12.474;2023-02-24T19:42:13;7.47;;;5.30;;
8986;SDS011;4529;51.360;12.474;2023-02-24T19:47:16;6.13;;;5.20;;
8986;SDS011;4529;51.360;12.474;2023-02-24T19:52:20;6.50;;;5.20;;
8986;SDS011;4529;51.360;12.474;2023-02-24T19:57:23;7.50;;;5.50;;
8986;SDS011;4529;51.360;12.474;2023-02-24T20:02:27;6.57;;;5.37;;
8986;SDS011;4529;51.360;12.474;2023-02-24T20:07:34;6.87;;;5.60;;
8986;SDS011;4529;51.360;12.474;2023-02-24T20:12:37;7.27;;;5.37;;
8986;SDS011;4529;51.360;12.474;2023-02-24T20:17:41;7.73;;;5.30;;
8986;SDS011;4529;51.360;12.474;2023-02-24T20:22:45;6.43;;;5.23;;
8986;SDS011;4529;51.360;12.474;2023-02-24T20:27:50;6.90;;;5.73;;
8986;SDS011;4529;51.360;12.474;2023-02-24T20:32:54;7.53;;;6.13;;
8986;SDS011;4529;51.360;12.474;2023-02-24T20:37:57;7.37;;;5.90;;
8986;SDS011;4529;51.360;12.474;2023-02-24T20:43:05;7.13;;;5.97;;
8986;SDS011;4529;51.360;12.474;2023-02-24T20:48:07;6.43;;;5.70;;
8986;SDS011;4529;51.360;12.474;2023-02-24T20:53:11;8.73;;;6.40;;
8986;SDS011;4529;51.360;12.474;2023-02-24T20:58:14;7.47;;;6.53;;
8986;SDS011;4529;51.360;12.474;2023-02-24T21:03:18;6.97;;;6.00;;
8986;SDS011;4529;51.360;12.474;2023-02-24T21:08:21;7.67;;;6.37;;
8986;SDS011;4529;51.360;12.474;2023-02-24T21:13:24;7.33;;;5.90;;
8986;SDS011;4529;51.360;12.474;2023-02-24T21:18:28;8.63;;;6.17;;
8986;SDS011;4529;51.360;12.474;2023-02-24T21:23:32;7.47;;;6.37;;
8986;SDS011;4529;51.360;12.474;2023-02-24T21:28:36;9.17;;;6.77;;
8986;SDS011;4529;51.360;12.474;2023-02-24T21:33:39;8.80;;;6.20;;
8986;SDS011;4529;51.360;12.474;2023-02-24T21:38:42;7.70;;;6.37;;
8986;SDS011;4529;51.360;12.474;2023-02-24T21:43:47;6.67;;;5.97;;
8986;SDS011;4529;51.360;12.474;2023-02-24T21:48:53;8.37;;;6.63;;
8986;SDS011;4529;51.360;12.474;2023-02-24T21:53:56;7.80;;;6.60;;
8986;SDS011;4529;51.360;12.474;2023-02-24T21:59:01;8.37;;;7.17;;
8986;SDS011;4529;51.360;12.474;2023-02-24T22:04:07;9.17;;;6.97;;
8986;SDS011;4529;51.360;12.474;2023-02-24T22:09:13;9.13;;;6.90;;
8986;SDS011;4529;51.360;12.474;2023-02-24T22:14:16;8.87;;;7.53;;
8986;SDS011;4529;51.360;12.474;2023-02-24T22:19:20;9.63;;;7.20;;
8986;SDS011;4529;51.360;12.474;2023-02-24T22:24:24;9.60;;;6.80;;
8986;SDS011;4529;51.360;12.474;2023-02-24T22:29:27;10.83;;;7.37;;
8986;SDS011;4529;51.360;12.474;2023-02-24T22:34:30;9.57;;;7.00;;
8986;SDS011;4529;51.360;12.474;2023-02-24T22:39:35;10.03;;;7.07;;
8986;SDS011;4529;51.360;12.474;2023-02-24T22:44:39;10.47;;;7.37;;
8986;SDS011;4529;51.360;12.474;2023-02-24T22:49:42;9.20;;;7.37;;
8986;SDS011;4529;51.360;12.474;2023-02-24T22:54:46;11.70;;;7.70;;
8986;SDS011;4529;51.360;12.474;2023-02-24T22:59:49;8.80;;;7.37;;
8986;SDS011;4529;51.360;12.474;2023-02-24T23:04:53;9.17;;;7.30;;
8986;SDS011;4529;51.360;12.474;2023-02-24T23:09:57;10.53;;;6.97;;
8986;SDS011;4529;51.360;12.474;2023-02-24T23:15:01;10.60;;;6.93;;
8986;SDS011;4529;51.360;12.474;2023-02-24T23:20:04;11.27;;;6.60;;
8986;SDS011;4529;51.360;12.474;2023-02-24T23:25:08;8.77;;;6.53;;
8986;SDS011;4529;51.360;12.474;2023-02-24T23:30:11;11.40;;;7.10;;
8986;SDS011;4529;51.360;12.474;2023-02-24T23:35:15;8.50;;;7.00;;
8986;SDS011;4529;51.360;12.474;2023-02-24T23:40:19;9.57;;;6.53;;
8986;SDS011;4529;51.360;12.474;2023-02-24T23:45:23;8.83;;;6.07;;
8986;SDS011;4529;51.360;12.474;2023-02-24T23:50:26;9.23;;;6.00;;
8986;SDS011;4529;51.360;12.474;2023-02-24T23:55:30;6.90;;;5.53;;
